Time;durP1;ratioP1;P1;durP2;ratioP2;P2;SDS_P1;SDS_P2;PMS_P1;PMS_P2;Temp;Humidity;BMP_temperature;BMP_pressure;BME280_temperature;BME280_humidity;BME280_pressure;Samples;Min_cycle;Max_cycle;Signal;HPM_P1;HPM_P2
2023/12/16 00:26:53;;;;;;;24.27;5.53;;;;;;;6.06;100.00;103425.16;5042145;23;20063;-85
2023/12/16 00:29:19;;;;;;;29.27;6.95;;;;;;;6.02;100.00;103432.66;4918031;29;20052;-80
2023/12/16 00:31:45;;;;;;;;;;;;;;;6.02;100.00;103433.47;4949918;29;20106;-82
2023/12/16 00:34:11;;;;;;;19.95;5.13;;;;;;;5.96;100.00;103433.34;4913890;29;20436;-76
2023/12/16 00:36:38;;;;;;;14.77;4.22;;;;;;;5.94;100.00;103435.34;4934161;28;20072;-85
2023/12/16 01:26:51;;;;;;;;;;;;;;;5.71;100.00;103478.63;5153020;23;20292;-77
2023/12/16 01:29:48;;;;;;;27.95;5.20;;;;;;;5.70;100.00;103481.47;5223809;23;20104;31
2023/12/16 01:32:14;;;;;;;20.10;4.05;;;;;;;5.61;100.00;103477.97;4899019;29;20051;-85
2023/12/16 01:34:43;;;;;;;22.10;4.93;;;;;;;5.62;100.00;103484.97;5257387;23;20047;-85
2023/12/16 01:37:12;;;;;;;18.25;4.32;;;;;;;5.56;100.00;103464.38;4972465;28;20030;-85
2023/12/16 01:39:38;;;;;;;;;;;;;;;5.61;100.00;103474.47;4959840;28;20050;-85
2023/12/16 01:42:07;;;;;;;21.15;4.72;;;;;;;5.60;100.00;103475.50;4966653;28;19922;-84
2023/12/16 01:47:24;;;;;;;18.70;3.95;;;;;;;5.54;100.00;103455.72;5119824;23;20055;-84
2023/12/16 01:52:46;;;;;;;20.02;4.88;;;;;;;5.62;100.00;103458.38;5144980;23;20051;-70
2023/12/16 01:55:13;;;;;;;18.00;5.10;;;;;;;5.61;100.00;103458.53;4914090;29;20047;-72
2023/12/16 01:57:40;;;;;;;11.90;3.70;;;;;;;5.60;100.00;103455.06;4901414;29;20036;-70
2023/12/16 02:00:14;;;;;;;15.63;4.03;;;;;;;5.60;100.00;103439.09;4891069;29;20530;-71
2023/12/16 02:02:40;;;;;;;19.92;4.22;;;;;;;5.64;100.00;103432.44;4905680;29;20032;-73
2023/12/16 02:05:09;;;;;;;13.38;3.80;;;;;;;5.66;100.00;103432.28;4903963;29;20040;-71
2023/12/16 02:07:35;;;;;;;14.93;3.65;;;;;;;5.67;100.00;103424.13;4901479;29;20052;-71
2023/12/16 02:10:02;;;;;;;21.83;3.88;;;;;;;5.67;100.00;103428.63;4893855;29;20032;-71
2023/12/16 02:12:33;;;;;;;15.38;3.40;;;;;;;5.68;100.00;103427.59;4908304;29;20042;-71
2023/12/16 02:15:00;;;;;;;19.60;3.58;;;;;;;5.71;100.00;103430.75;4905255;29;20075;-72
2023/12/16 02:17:25;;;;;;;15.52;3.53;;;;;;;5.73;100.00;103433.25;4875583;29;20044;-72
2023/12/16 02:19:54;;;;;;;16.02;3.17;;;;;;;5.74;100.00;103430.41;4911111;29;20044;-71
2023/12/16 02:22:22;;;;;;;13.70;3.03;;;;;;;5.73;100.00;103431.41;4889201;29;20540;-71
2023/12/16 02:24:48;;;;;;;12.75;2.92;;;;;;;5.73;100.00;103428.75;4912347;29;20142;-71
2023/12/16 02:27:13;;;;;;;;;;;;;;;5.77;100.00;103434.56;4902580;29;20718;-70
2023/12/16 02:29:39;;;;;;;11.95;3.03;;;;;;;5.80;100.00;103430.72;4891751;29;19919;-71
2023/12/16 02:32:06;;;;;;;16.65;3.10;;;;;;;5.82;100.00;103428.72;4904947;29;20171;-71
2023/12/16 02:34:32;;;;;;;15.95;3.53;;;;;;;5.83;100.00;103425.91;4888460;29;20047;-72
2023/12/16 02:36:57;;;;;;;13.38;3.10;;;;;;;5.89;100.00;103416.38;4904897;29;20040;-71
2023/12/16 02:39:23;;;;;;;8.90;2.78;;;;;;;5.94;100.00;103403.44;4905206;29;20442;-71
2023/12/16 02:41:49;;;;;;;11.07;2.70;;;;;;;5.97;100.00;103397.78;4906745;29;20028;-73
2023/12/16 02:44:15;;;;;;;12.98;2.88;;;;;;;5.96;100.00;103401.41;4890903;29;20044;-71
2023/12/16 02:46:40;;;;;;;11.45;2.78;;;;;;;5.97;100.00;103403.09;4905536;29;20050;-71
2023/12/16 02:49:06;;;;;;;9.60;2.42;;;;;;;5.99;100.00;103401.09;4907691;29;20060;-71
2023/12/16 02:51:32;;;;;;;11.38;2.85;;;;;;;6.00;100.00;103397.44;4888793;29;20839;-71
2023/12/16 02:53:58;;;;;;;10.60;2.45;;;;;;;6.03;100.00;103410.41;4904442;29;20039;-70
2023/12/16 02:56:23;;;;;;;21.10;3.03;;;;;;;6.02;100.00;103411.38;4901911;29;20083;-71
2023/12/16 02:58:49;;;;;;;7.68;1.92;;;;;;;6.04;100.00;103417.38;4904047;29;20123;-71
2023/12/16 03:01:16;;;;;;;12.13;2.35;;;;;;;6.05;100.00;103413.69;4905863;29;20123;-70
2023/12/16 03:03:42;;;;;;;11.40;2.65;;;;;;;6.05;100.00;103413.69;4904374;29;20036;-71
2023/12/16 03:06:08;;;;;;;13.82;2.28;;;;;;;6.08;100.00;103412.50;4907396;29;20042;-70
2023/12/16 03:08:35;;;;;;;11.45;2.47;;;;;;;6.09;100.00;103412.34;4905477;29;20048;-70
2023/12/16 03:11:01;;;;;;;;;;;;;;;6.10;100.00;103398.06;4880145;29;20036;-71
2023/12/16 03:13:27;;;;;;;11.50;2.63;;;;;;;6.11;100.00;103402.38;4901813;29;20468;-72
2023/12/16 03:15:53;;;;;;;10.20;2.08;;;;;;;6.09;100.00;103395.53;4907788;29;20047;-71
2023/12/16 03:18:19;;;;;;;11.95;2.67;;;;;;;6.06;100.00;103406.53;4906401;29;20066;-71
2023/12/16 03:20:45;;;;;;;8.05;1.95;;;;;;;6.04;100.00;103393.44;4911468;29;20745;-71
2023/12/16 03:23:11;;;;;;;9.35;1.98;;;;;;;6.01;100.00;103401.75;4908552;29;20479;-71
2023/12/16 03:25:43;;;;;;;11.00;2.45;;;;;;;5.98;100.00;103391.47;4896717;29;20131;-70
2023/12/16 03:28:09;;;;;;;12.95;2.53;;;;;;;5.94;100.00;103396.28;4907941;29;20036;-73
2023/12/16 03:30:38;;;;;;;6.75;2.13;;;;;;;5.90;100.00;103391.47;4895926;29;20743;-72
2023/12/16 03:33:04;;;;;;;8.88;2.00;;;;;;;5.87;100.00;103386.50;4906745;29;20047;-71
2023/12/16 03:35:30;;;;;;;14.68;2.83;;;;;;;5.86;100.00;103384.84;4912251;29;20043;-70
2023/12/16 03:37:57;;;;;;;7.20;1.63;;;;;;;5.85;100.00;103388.50;4911874;29;20038;-71
2023/12/16 03:40:23;;;;;;;11.95;1.63;;;;;;;5.86;100.00;103401.63;4893993;29;20136;-71
2023/12/16 03:42:49;;;;;;;8.13;2.33;;;;;;;5.91;100.00;103414.44;4909278;29;20578;-71
2023/12/16 03:45:14;;;;;;;10.60;1.90;;;;;;;5.93;100.00;103428.38;4911996;29;20032;-71
2023/12/16 03:47:40;;;;;;;8.95;2.28;;;;;;;5.88;100.00;103439.50;4910374;29;20040;-71
2023/12/16 03:50:06;;;;;;;8.05;2.17;;;;;;;5.86;100.00;103438.03;4913883;29;20028;-71
2023/12/16 03:52:31;;;;;;;12.07;2.33;;;;;;;5.83;100.00;103438.38;4912674;29;20399;-72
2023/12/16 03:54:57;;;;;;;7.32;1.88;;;;;;;5.81;100.00;103445.69;4915386;29;20115;-71
2023/12/16 03:57:23;;;;;;;12.23;2.70;;;;;;;5.78;100.00;103440.72;4907551;29;20119;-72
2023/12/16 03:59:49;;;;;;;10.60;2.22;;;;;;;5.81;100.00;103446.50;4909820;29;20502;-72
2023/12/16 04:02:14;;;;;;;10.25;2.30;;;;;;;5.88;100.00;103446.66;4893499;29;20516;-71
2023/12/16 04:04:41;;;;;;;10.00;2.45;;;;;;;5.89;100.00;103449.16;4893686;29;20123;-71
2023/12/16 04:07:07;;;;;;;11.60;2.70;;;;;;;5.94;100.00;103449.47;4910728;29;20119;-71
2023/12/16 04:09:33;;;;;;;12.02;2.63;;;;;;;5.94;100.00;103451.31;4909052;29;20498;-72
2023/12/16 04:11:58;;;;;;;9.55;2.33;;;;;;;5.99;100.00;103455.13;4909087;29;20047;-71
2023/12/16 04:14:25;;;;;;;11.43;3.25;;;;;;;5.97;100.00;103466.94;4907362;29;20387;-71
2023/12/16 04:16:51;;;;;;;9.80;1.92;;;;;;;5.97;100.00;103469.59;4908679;29;20032;-71
2023/12/16 04:19:16;;;;;;;7.70;2.13;;;;;;;5.98;100.00;103471.25;4896414;29;20044;-72
2023/12/16 04:21:42;;;;;;;11.20;2.60;;;;;;;5.99;100.00;103470.25;4911576;29;20565;-71
2023/12/16 04:24:08;;;;;;;9.88;2.70;;;;;;;6.01;100.00;103473.56;4913388;29;20032;-70
2023/12/16 04:26:37;;;;;;;14.93;3.03;;;;;;;6.03;100.00;103466.25;4910148;29;20039;-71
2023/12/16 04:29:03;;;;;;;9.30;2.42;;;;;;;6.06;100.00;103476.53;4908362;29;20067;-71
2023/12/16 04:31:29;;;;;;;12.07;2.58;;;;;;;6.08;100.00;103474.53;4893012;29;20043;-71
2023/12/16 04:33:55;;;;;;;6.80;2.53;;;;;;;6.05;100.00;103469.56;4910708;29;20084;-72
2023/12/16 04:36:20;;;;;;;11.48;2.58;;;;;;;6.07;100.00;103472.88;4908257;29;20520;-72
2023/12/16 04:38:46;;;;;;;10.70;2.33;;;;;;;6.05;100.00;103469.56;4907301;29;20032;-72
2023/12/16 04:41:14;;;;;;;10.05;2.60;;;;;;;6.08;100.00;103468.38;4909882;29;20042;-71
2023/12/16 04:43:40;;;;;;;11.15;2.33;;;;;;;6.10;100.00;103461.91;4905349;29;20044;-70
2023/12/16 04:46:06;;;;;;;8.65;2.50;;;;;;;6.09;100.00;103464.72;4905710;29;20115;-71
2023/12/16 04:48:33;;;;;;;8.43;2.58;;;;;;;6.08;100.00;103453.25;4908517;29;20668;-70
2023/12/16 04:51:06;;;;;;;11.75;2.15;;;;;;;6.05;100.00;103456.25;4908160;29;20047;-71
2023/12/16 04:53:32;;;;;;;9.07;2.45;;;;;;;6.03;100.00;103458.28;4907123;29;20126;-71
2023/12/16 04:55:58;;;;;;;9.88;2.33;;;;;;;6.01;100.00;103469.06;4907095;29;20158;-71
2023/12/16 04:58:24;;;;;;;9.23;2.38;;;;;;;6.00;100.00;103463.94;4907198;29;20074;-72
2023/12/16 05:00:49;;;;;;;10.43;2.28;;;;;;;6.01;100.00;103462.91;4908574;29;20779;-70
2023/12/16 05:03:15;;;;;;;9.75;2.63;;;;;;;5.97;100.00;103462.47;4909062;29;20502;-71
2023/12/16 05:05:41;;;;;;;7.57;2.95;;;;;;;5.95;100.00;103474.25;4907178;29;20032;-70
2023/12/16 05:08:07;;;;;;;11.15;2.78;;;;;;;5.94;100.00;103470.75;4886536;29;20044;-71
2023/12/16 05:10:32;;;;;;;9.07;2.97;;;;;;;5.92;100.00;103474.59;4892319;29;20942;-73
2023/12/16 05:12:58;;;;;;;10.55;2.60;;;;;;;5.88;100.00;103473.25;4889944;29;20040;-72
2023/12/16 05:15:24;;;;;;;11.80;2.80;;;;;;;5.85;100.00;103471.78;4903511;29;20048;-72
2023/12/16 05:17:49;;;;;;;9.82;2.08;;;;;;;5.83;100.00;103467.63;4903437;29;20028;-72
2023/12/16 05:20:15;;;;;;;8.15;2.47;;;;;;;5.83;100.00;103470.28;4907731;29;20116;-69
2023/12/16 05:22:41;;;;;;;10.18;2.72;;;;;;;5.85;100.00;103469.13;4908600;29;20123;-73
2023/12/16 05:25:06;;;;;;;10.70;2.97;;;;;;;5.86;100.00;103467.28;4905173;29;20028;-71
2023/12/16 05:27:32;;;;;;;11.18;2.20;;;;;;;5.89;100.00;103474.91;4909661;29;20552;-73
2023/12/16 05:30:00;;;;;;;8.35;2.17;;;;;;;5.88;100.00;103468.75;4910779;29;20040;-71
2023/12/16 05:32:26;;;;;;;14.43;2.53;;;;;;;5.92;100.00;103475.44;4892172;29;20040;-71
2023/12/16 05:34:52;;;;;;;;;;;;;;;5.97;100.00;103482.91;4906303;29;20036;-73
2023/12/16 05:37:17;;;;;;;7.28;1.83;;;;;;;5.95;100.00;103480.41;4906419;29;19930;-72
2023/12/16 05:39:43;;;;;;;11.48;2.72;;;;;;;5.98;100.00;103471.25;4900346;29;20507;-71
2023/12/16 05:42:09;;;;;;;8.45;2.63;;;;;;;6.00;100.00;103471.91;4902483;29;20521;-71
2023/12/16 05:44:35;;;;;;;8.18;3.05;;;;;;;6.00;100.00;103471.91;4902871;29;20139;-71
2023/12/16 05:47:01;;;;;;;;;;;;;;;6.00;100.00;103482.56;4908927;29;20130;-71
2023/12/16 05:49:27;;;;;;;12.02;3.25;;;;;;;6.01;100.00;103473.56;4903432;29;20337;-73
2023/12/16 05:51:54;;;;;;;10.52;2.40;;;;;;;6.03;100.00;103476.91;4906911;29;20624;-71
2023/12/16 05:54:20;;;;;;;7.40;2.10;;;;;;;6.03;100.00;103476.91;4906822;29;20040;-72
2023/12/16 05:56:46;;;;;;;11.65;3.10;;;;;;;6.03;100.00;103460.94;4905752;29;20060;-73
2023/12/16 05:59:12;;;;;;;10.95;1.92;;;;;;;6.02;100.00;103459.25;4900733;29;20132;-72
2023/12/16 06:01:37;;;;;;;11.27;2.28;;;;;;;5.99;100.00;103454.28;4907540;29;20643;-71
2023/12/16 06:04:03;;;;;;;9.88;2.35;;;;;;;5.98;100.00;103449.97;4903695;29;20565;-70
2023/12/16 06:06:30;;;;;;;12.57;2.35;;;;;;;5.96;100.00;103446.66;4903704;29;20550;-72
2023/12/16 06:08:56;;;;;;;9.88;2.28;;;;;;;5.94;100.00;103441.50;4889819;29;20091;-71
2023/12/16 06:11:22;;;;;;;9.25;2.03;;;;;;;5.88;100.00;103451.97;4906699;29;20039;-72
2023/12/16 06:13:50;;;;;;;9.38;2.15;;;;;;;5.83;100.00;103443.69;4904650;29;20040;-72
2023/12/16 06:16:16;;;;;;;7.13;2.70;;;;;;;5.80;100.00;103438.72;4904184;29;20036;-71
2023/12/16 06:18:43;;;;;;;12.30;2.40;;;;;;;5.73;100.00;103428.75;4890517;29;20087;-71
2023/12/16 06:21:09;;;;;;;6.90;2.35;;;;;;;5.69;100.00;103432.78;4905750;29;20040;-71
2023/12/16 06:23:35;;;;;;;10.23;2.28;;;;;;;5.68;100.00;103430.25;4907370;29;20032;-71
2023/12/16 06:26:01;;;;;;;10.70;2.33;;;;;;;5.64;100.00;103429.78;4886439;29;20036;-71
2023/12/16 06:28:27;;;;;;;13.10;2.55;;;;;;;5.64;100.00;103429.78;4904196;29;20497;-71
2023/12/16 06:30:52;;;;;;;9.55;2.47;;;;;;;5.67;100.00;103431.28;4905401;29;20046;-70
2023/12/16 06:33:18;;;;;;;10.88;2.08;;;;;;;5.67;100.00;103440.06;4904224;29;20040;-71
2023/12/16 06:35:44;;;;;;;6.03;2.08;;;;;;;5.64;100.00;103428.97;4904213;29;20897;-71
2023/12/16 06:38:09;;;;;;;5.95;2.40;;;;;;;5.63;100.00;103432.63;4905258;29;20351;-71
2023/12/16 06:40:35;;;;;;;8.95;2.10;;;;;;;5.63;100.00;103424.66;4904355;29;20849;-72
2023/12/16 06:43:00;;;;;;;10.30;1.92;;;;;;;5.62;100.00;103425.63;4903743;29;20478;-71
2023/12/16 06:45:26;;;;;;;13.63;2.53;;;;;;;5.61;100.00;103435.44;4906337;29;20043;-72
2023/12/16 06:47:52;;;;;;;11.75;2.22;;;;;;;5.63;100.00;103437.94;4905735;29;20091;-72
2023/12/16 06:50:18;;;;;;;8.35;2.10;;;;;;;5.64;100.00;103434.28;4900846;29;20056;-72
2023/12/16 06:52:43;;;;;;;14.27;2.90;;;;;;;5.66;100.00;103442.91;4903856;29;20128;-71
2023/12/16 06:55:09;;;;;;;12.43;2.85;;;;;;;5.67;100.00;103434.75;4904651;29;20223;-70
2023/12/16 06:57:35;;;;;;;8.73;2.10;;;;;;;5.69;100.00;103438.09;4901831;29;20047;-71
2023/12/16 07:00:01;;;;;;;11.63;2.33;;;;;;;5.70;100.00;103441.59;4905864;29;20509;-72
2023/12/16 07:02:27;;;;;;;9.80;2.00;;;;;;;5.68;100.00;103439.06;4903005;29;20044;-71
2023/12/16 07:04:52;;;;;;;10.65;2.70;;;;;;;5.69;100.00;103443.41;4886574;29;20051;-72
2023/12/16 07:07:18;;;;;;;10.82;2.53;;;;;;;5.69;100.00;103443.41;4889203;29;20035;-72
2023/12/16 07:09:43;;;;;;;13.02;2.60;;;;;;;5.71;100.00;103429.94;4906066;29;20044;-72
2023/12/16 07:12:09;;;;;;;8.52;2.45;;;;;;;5.69;100.00;103430.13;4887984;29;20036;-71
2023/12/16 07:14:35;;;;;;;11.30;3.05;;;;;;;5.64;100.00;103435.09;4906598;29;20048;-72
2023/12/16 07:17:01;;;;;;;10.88;2.20;;;;;;;5.62;100.00;103442.44;4888549;29;20048;-72
2023/12/16 07:19:30;;;;;;;9.27;2.60;;;;;;;5.66;100.00;103438.41;4888311;29;20040;-72
2023/12/16 07:21:55;;;;;;;10.55;2.53;;;;;;;5.66;100.00;103441.06;4891264;29;20043;-73
2023/12/16 07:24:21;;;;;;;10.80;2.30;;;;;;;5.65;100.00;103435.94;4904876;29;20044;-72
2023/12/16 07:26:47;;;;;;;10.38;3.05;;;;;;;5.62;100.00;103437.13;4876553;29;20042;-71
2023/12/16 07:29:13;;;;;;;9.07;2.30;;;;;;;5.65;100.00;103442.09;4873340;29;20520;-71
2023/12/16 07:31:38;;;;;;;9.38;3.00;;;;;;;5.67;100.00;103432.09;4888319;29;20035;-71
2023/12/16 07:34:04;;;;;;;9.07;2.25;;;;;;;5.74;100.00;103432.25;4904483;29;20554;-71
2023/12/16 07:36:29;;;;;;;7.32;1.95;;;;;;;5.75;100.00;103426.75;4905706;29;20048;-72
2023/12/16 07:38:57;;;;;;;10.43;3.22;;;;;;;5.77;100.00;103434.56;4888242;29;20073;-71
2023/12/16 07:41:22;;;;;;;9.38;2.58;;;;;;;5.79;100.00;103432.56;4889995;29;20131;-71
2023/12/16 07:43:48;;;;;;;11.00;2.60;;;;;;;5.85;100.00;103436.38;4889744;29;20536;-70
2023/12/16 07:46:15;;;;;;;7.93;2.10;;;;;;;5.90;100.00;103431.38;4903959;29;20439;-71
2023/12/16 07:48:42;;;;;;;17.13;2.63;;;;;;;5.95;100.00;103434.34;4904472;29;20036;-71
2023/12/16 07:51:15;;;;;;;9.02;2.22;;;;;;;6.01;100.00;103444.31;4905423;29;20107;-70
2023/12/16 07:53:48;;;;;;;10.55;2.33;;;;;;;6.03;100.00;103444.97;4927379;23;20170;-79
2023/12/16 07:56:28;;;;;;;15.15;3.15;;;;;;;6.01;100.00;103428.34;4885438;29;20047;-78
2023/12/16 07:58:57;;;;;;;8.98;2.65;;;;;;;6.06;100.00;103431.31;4898798;29;20150;-79
2023/12/16 08:01:26;;;;;;;13.25;2.67;;;;;;;6.09;100.00;103433.63;4873269;29;20055;-79
2023/12/16 08:03:51;;;;;;;9.23;2.35;;;;;;;6.14;100.00;103439.25;4885408;29;20029;-78
2023/12/16 08:06:17;;;;;;;9.82;2.35;;;;;;;6.16;100.00;103429.25;4905431;29;20478;-79
2023/12/16 08:08:44;;;;;;;7.80;2.25;;;;;;;6.21;100.00;103431.41;4873677;29;20433;-78
2023/12/16 08:11:12;;;;;;;14.52;2.72;;;;;;;6.23;100.00;103435.56;4904154;29;20096;-78
2023/12/16 08:13:41;;;;;;;11.00;2.20;;;;;;;6.24;100.00;103439.06;4889446;29;20063;-76
2023/12/16 08:16:10;;;;;;;14.90;2.50;;;;;;;6.26;100.00;103440.53;4888309;29;20036;-76
2023/12/16 08:18:36;;;;;;;9.73;1.90;;;;;;;6.29;100.00;103448.16;4905394;29;20062;-79
2023/12/16 08:21:02;;;;;;;12.50;2.58;;;;;;;6.29;100.00;103445.47;4904061;29;20037;-78
2023/12/16 08:23:28;;;;;;;10.55;2.58;;;;;;;6.29;100.00;103428.69;4884267;29;20032;-76
2023/12/16 08:25:54;;;;;;;13.23;2.65;;;;;;;6.29;100.00;103415.38;4891458;29;20039;-77
2023/12/16 08:28:20;;;;;;;13.65;2.45;;;;;;;6.31;100.00;103415.22;4905900;29;20100;-78
2023/12/16 08:30:49;;;;;;;8.40;2.10;;;;;;;6.32;100.00;103417.72;4889992;29;20099;-78
2023/12/16 08:33:14;;;;;;;15.30;3.33;;;;;;;6.35;100.00;103420.00;4877758;29;20122;-79
2023/12/16 08:35:44;;;;;;;10.75;2.08;;;;;;;6.33;100.00;103413.22;4875453;29;20130;-81
2023/12/16 08:38:11;;;;;;;11.77;2.58;;;;;;;6.34;100.00;103414.88;4889093;29;20040;-77
2023/12/16 08:40:38;;;;;;;10.23;2.25;;;;;;;6.37;100.00;103426.00;4893273;29;20032;-78
2023/12/16 08:43:05;;;;;;;12.07;3.05;;;;;;;6.38;100.00;103424.16;4887111;29;20494;-78
2023/12/16 08:45:30;;;;;;;11.10;2.80;;;;;;;6.34;100.00;103421.00;4892385;29;20044;-78
2023/12/16 08:47:56;;;;;;;9.63;2.80;;;;;;;6.33;100.00;103424.69;4906044;29;20668;-76
2023/12/16 08:50:25;;;;;;;12.88;2.50;;;;;;;6.33;100.00;103418.53;4875471;29;20075;-78
2023/12/16 08:52:51;;;;;;;14.63;3.25;;;;;;;6.32;100.00;103411.56;4890106;29;20044;-81
2023/12/16 08:55:18;;;;;;;13.20;2.90;;;;;;;6.31;100.00;103410.72;4891122;29;20092;-77
2023/12/16 08:57:43;;;;;;;9.57;2.30;;;;;;;6.30;100.00;103419.72;4876223;29;20032;-77
2023/12/16 09:00:09;;;;;;;10.93;2.63;;;;;;;6.33;100.00;103421.19;4873876;29;20039;-79
2023/12/16 09:02:36;;;;;;;12.35;3.10;;;;;;;6.33;100.00;103402.56;4884837;29;20553;-79
2023/12/16 09:05:02;;;;;;;9.80;3.05;;;;;;;6.32;100.00;103406.25;4904061;29;20048;-77
2023/12/16 09:07:28;;;;;;;10.98;3.10;;;;;;;6.36;100.00;103420.84;4864700;29;20071;-79
2023/12/16 09:09:54;;;;;;;12.02;3.13;;;;;;;6.37;100.00;103428.66;4904030;29;20080;-76
2023/12/16 09:12:20;;;;;;;11.07;3.20;;;;;;;6.39;100.00;103433.81;4873428;29;20067;-79
2023/12/16 09:14:46;;;;;;;13.35;3.13;;;;;;;6.37;100.00;103433.13;4872057;29;20107;-79
2023/12/16 09:17:12;;;;;;;15.23;3.60;;;;;;;6.39;100.00;103429.31;4906663;29;20454;-76
2023/12/16 09:19:38;;;;;;;14.13;3.53;;;;;;;6.39;100.00;103433.81;4891564;29;20675;-79
2023/12/16 09:22:06;;;;;;;12.13;3.70;;;;;;;6.41;100.00;103434.44;4901499;29;20083;-76
2023/12/16 09:24:33;;;;;;;11.35;4.20;;;;;;;6.41;100.00;103437.13;4865893;29;20083;-78
2023/12/16 09:26:59;;;;;;;14.38;4.32;;;;;;;6.42;100.00;103428.13;4873755;29;20047;-78
2023/12/16 09:29:25;;;;;;;;;;;;;;;6.45;100.00;103433.09;4871773;29;20047;-78
2023/12/16 09:31:51;;;;;;;10.20;5.18;;;;;;;6.43;100.00;103435.09;4876892;29;20385;-77
2023/12/16 09:34:20;;;;;;;14.55;4.25;;;;;;;6.43;100.00;103445.75;4889235;29;20114;-77
2023/12/16 09:36:46;;;;;;;12.32;4.28;;;;;;;6.46;100.00;103440.91;4873077;29;20032;-76
2023/12/16 09:39:12;;;;;;;13.80;5.50;;;;;;;6.39;100.00;103433.81;4873423;29;20708;-77
2023/12/16 09:41:44;;;;;;;14.88;5.38;;;;;;;6.38;100.00;103448.13;4869416;29;20039;-77
2023/12/16 09:44:14;;;;;;;14.00;5.20;;;;;;;6.37;100.00;103449.97;4873747;29;20044;-78
2023/12/16 09:46:44;;;;;;;14.35;5.15;;;;;;;6.37;100.00;103446.44;4885401;29;20491;-79
2023/12/16 09:49:12;;;;;;;16.92;5.70;;;;;;;6.38;100.00;103440.97;4874759;29;20071;-78
2023/12/16 09:51:41;;;;;;;11.88;5.53;;;;;;;6.35;100.00;103448.47;4905228;29;20042;-79
2023/12/16 09:54:07;;;;;;;10.88;5.80;;;;;;;6.34;100.00;103441.47;4870310;29;20040;-77
2023/12/16 09:56:39;;;;;;;12.43;6.22;;;;;;;6.34;100.00;103446.81;4887290;29;20040;-79
2023/12/16 09:59:06;;;;;;;14.68;6.50;;;;;;;6.35;100.00;103451.13;4867794;29;20029;-78
2023/12/16 10:01:33;;;;;;;17.55;6.18;;;;;;;6.36;100.00;103456.25;4892148;29;20699;-79
2023/12/16 10:04:01;;;;;;;15.20;6.53;;;;;;;6.35;100.00;103449.28;4902660;29;20123;-77
2023/12/16 10:06:27;;;;;;;16.98;6.70;;;;;;;6.35;100.00;103446.63;4868944;29;20040;-77
2023/12/16 10:08:52;;;;;;;16.52;7.43;;;;;;;6.35;100.00;103446.63;4866917;29;20990;-76
2023/12/16 10:11:18;;;;;;;14.27;6.80;;;;;;;6.34;100.00;103444.16;4871796;29;20058;-76
2023/12/16 10:14:00;;;;;;;17.50;6.47;;;;;;;6.36;100.00;103444.78;4883271;29;20036;-76
2023/12/16 10:16:26;;;;;;;16.67;7.70;;;;;;;6.34;100.00;103441.47;4903248;29;20067;-76
2023/12/16 10:18:56;;;;;;;15.45;6.53;;;;;;;6.30;100.00;103419.72;4885025;29;20119;-78
2023/12/16 10:21:26;;;;;;;15.77;7.30;;;;;;;6.34;100.00;103430.84;4901180;29;20041;-77
2023/12/16 10:24:00;;;;;;;17.00;6.63;;;;;;;6.34;100.00;103431.66;4904070;29;20048;-76
2023/12/16 10:26:28;;;;;;;18.52;7.00;;;;;;;6.34;100.00;103423.69;4885075;29;20487;-76
2023/12/16 10:28:54;;;;;;;12.43;6.93;;;;;;;6.36;100.00;103419.00;4873381;29;20036;-77
2023/12/16 10:31:21;;;;;;;15.43;6.53;;;;;;;6.37;100.00;103414.50;4890845;29;20135;-75
2023/12/16 10:33:49;;;;;;;19.10;7.95;;;;;;;6.37;100.00;103401.19;4885477;29;20051;-80
2023/12/16 10:36:15;;;;;;;21.75;8.25;;;;;;;6.39;100.00;103407.19;4889498;29;20043;-75
2023/12/16 10:38:41;;;;;;;16.25;7.47;;;;;;;6.37;100.00;103403.84;4891668;29;20048;-76
2023/12/16 10:41:08;;;;;;;22.58;9.38;;;;;;;6.38;100.00;103398.38;4874453;29;20069;-76
2023/12/16 10:43:34;;;;;;;20.77;8.30;;;;;;;6.37;100.00;103388.75;4885768;29;20422;-76
2023/12/16 10:46:04;;;;;;;22.08;8.90;;;;;;;6.39;100.00;103391.22;4888659;29;20109;-75
2023/12/16 10:48:35;;;;;;;18.65;8.45;;;;;;;6.39;100.00;103383.22;4905702;29;20036;-75
2023/12/16 10:51:04;;;;;;;20.92;8.88;;;;;;;6.41;100.00;103381.22;4904774;29;20031;-77
2023/12/16 10:53:44;;;;;;;24.25;10.25;;;;;;;6.41;100.00;103384.69;4871507;29;20045;-75
2023/12/16 10:56:18;;;;;;;21.33;9.88;;;;;;;6.43;100.00;103387.19;4898748;29;20064;-76
2023/12/16 10:58:55;;;;;;;20.35;9.65;;;;;;;6.47;100.00;103385.81;4883489;29;20051;-76
2023/12/16 11:01:29;;;;;;;21.83;10.32;;;;;;;6.46;100.00;103378.84;4883395;29;20536;-75
2023/12/16 11:04:12;;;;;;;19.30;9.73;;;;;;;6.51;100.00;103379.97;4868359;29;20180;-75
2023/12/16 11:06:50;;;;;;;19.90;9.00;;;;;;;6.54;100.00;103384.94;4885817;29;20086;-75
2023/12/16 11:09:20;;;;;;;20.05;9.57;;;;;;;6.56;100.00;103384.75;4882780;29;20036;-75
2023/12/16 11:11:47;;;;;;;20.17;10.45;;;;;;;6.54;100.00;103374.28;4905006;29;20036;-76
2023/12/16 11:14:13;;;;;;;;;;;;;;;6.59;100.00;103367.63;4866795;29;20212;-77
2023/12/16 11:16:59;;;;;;;21.38;9.55;;;;;;;6.60;100.00;103362.09;4902590;29;20459;-78
2023/12/16 11:19:31;;;;;;;20.17;10.75;;;;;;;6.61;100.00;103366.41;4853861;29;20207;-75
2023/12/16 11:21:57;;;;;;;21.13;10.73;;;;;;;6.61;100.00;103353.09;4870434;29;20043;-76
2023/12/16 11:24:24;;;;;;;20.85;10.73;;;;;;;6.59;100.00;103355.13;4907877;29;20040;-76
2023/12/16 11:26:53;;;;;;;18.13;10.30;;;;;;;6.59;100.00;103344.47;4875460;29;20040;-78
2023/12/16 11:29:21;;;;;;;20.65;11.23;;;;;;;6.57;100.00;103344.66;4887971;29;20051;-77
2023/12/16 11:31:58;;;;;;;22.00;10.27;;;;;;;6.61;100.00;103353.09;4888939;29;20036;-76
2023/12/16 11:34:43;;;;;;;20.13;11.73;;;;;;;6.63;100.00;103340.41;4884270;29;20048;-75
2023/12/16 11:37:10;;;;;;;22.52;11.68;;;;;;;6.66;100.00;103340.09;4889677;29;20036;-76
2023/12/16 11:39:37;;;;;;;26.67;12.40;;;;;;;6.66;100.00;103333.94;4888369;29;20040;-77
2023/12/16 11:42:03;;;;;;;;;;;;;;;6.64;100.00;103331.47;4878980;29;20044;-78
2023/12/16 11:44:56;;;;;;;22.27;11.88;;;;;;;6.62;100.00;103328.13;4911290;29;19919;-75
2023/12/16 11:47:27;;;;;;;25.10;11.35;;;;;;;6.59;100.00;103319.69;4891529;29;20159;-81
2023/12/16 11:49:55;;;;;;;18.83;11.18;;;;;;;6.58;100.00;103321.53;4876005;29;20501;-79
2023/12/16 11:52:23;;;;;;;22.73;12.55;;;;;;;6.62;100.00;103330.78;4891593;29;20708;-77
2023/12/16 11:54:57;;;;;;;21.52;11.57;;;;;;;6.64;100.00;103326.13;4907652;29;20312;-76
2023/12/16 11:57:25;;;;;;;23.48;11.25;;;;;;;6.63;100.00;103334.28;4888293;29;20155;-77
2023/12/16 11:59:54;;;;;;;21.77;11.27;;;;;;;6.65;100.00;103330.44;4906063;29;20043;-78
2023/12/16 12:02:20;;;;;;;23.15;12.48;;;;;;;6.67;100.00;103336.41;4890951;29;20050;-74
2023/12/16 12:04:46;;;;;;;;;;;;;;;6.70;100.00;103338.69;4892096;29;20569;-75
2023/12/16 12:07:13;;;;;;;26.20;14.73;;;;;;;6.70;100.00;103345.88;4903119;29;19951;-73
2023/12/16 12:09:41;;;;;;;23.25;13.55;;;;;;;6.68;100.00;103338.06;4890838;29;20499;-75
2023/12/16 12:12:08;;;;;;;23.42;13.70;;;;;;;6.69;100.00;103347.69;4877300;29;20044;-76
2023/12/16 12:14:36;;;;;;;26.45;12.55;;;;;;;6.67;100.00;103340.91;4877272;29;20040;-73
2023/12/16 12:17:03;;;;;;;24.98;12.32;;;;;;;6.69;100.00;103347.69;4889276;29;20313;-74
2023/12/16 12:19:29;;;;;;;23.42;12.75;;;;;;;6.67;100.00;103355.06;4891059;29;20099;-74
2023/12/16 12:21:55;;;;;;;;;;;;;;;6.67;100.00;103359.53;4888859;29;20036;-75
2023/12/16 12:24:20;;;;;;;23.25;12.27;;;;;;;6.68;100.00;103359.38;4876296;29;19926;-74
2023/12/16 12:26:46;;;;;;;25.27;13.13;;;;;;;6.66;100.00;103356.06;4887155;29;20033;-74
2023/12/16 12:29:12;;;;;;;27.38;13.40;;;;;;;6.68;100.00;103358.53;4891612;29;20029;-74
2023/12/16 12:31:45;;;;;;;23.38;12.52;;;;;;;6.69;100.00;103362.84;4895628;29;20043;-74
2023/12/16 12:34:21;;;;;;;24.70;13.32;;;;;;;6.66;100.00;103360.56;4907501;29;20032;-74
2023/12/16 12:36:54;;;;;;;31.15;15.07;;;;;;;6.69;100.00;103369.00;4887016;29;20574;-75
2023/12/16 12:39:20;;;;;;;22.50;14.18;;;;;;;6.68;100.00;103363.88;4904863;29;20036;-75
2023/12/16 12:42:02;;;;;;;22.88;13.48;;;;;;;6.67;100.00;103357.72;4891585;29;20545;-74